Terminal Aerodrome Forecast
Issued by NWS Mt. Holly, NJ

Home | Current Version | Previous Version | Text Only | Print | Product List | Glossary On
Versions: 1 2 3 4 5 6 7 8 9 10 11 12 13 14 15 16 17 18 19
282
FTUS41 KPHI 130526
TAFRDG
TAF
KRDG 130526Z 1306/1406 24005KT P6SM SCT030 OVC050
      TEMPO 1306/1307 6SM -SHSN
     FM130900 30012G23KT P6SM SCT030 OVC040
      TEMPO 1309/1311 6SM -SHSN
     FM131200 31015G28KT P6SM SCT030 OVC040
     FM131400 31020G35KT P6SM BKN040
     FM140000 31012G25KT P6SM SCT040=

USA.gov is the U.S. government's official web portal to all federal, state and local government web resources and services.